| Date | Time | Temp. (oF) | Dew Point (oF) | Rel. Hum. (%) | Press. (in.) | Wind Dir. (deg.) | Wind Speed (mph) | Hourly Rainfall (i n.) |
|
|---|---|---|---|---|---|---|---|---|---|
| 1 | 07/04 | 24:00 | 79 | 71 | 77 | 30.24 | 150 | 0 | 0.00 |
| 2 | 07/03 | 23:00 | 80 | 72 | 77 | 30.23 | 150 | 0 | 0.00 |
| 3 | 07/03 | 22:00 | 81 | 71 | 74 | 30.23 | 150 | 2 | 0.00 |
| 4 | 07/03 | 21:00 | 83 | 72 | 72 | 30.24 | 140 | 1 | 0.00 |
| 5 | 07/03 | 20:00 | 85 | 73 | 69 | 30.25 | 190 | 2 | 0.00 |
| 6 | 07/03 | 19:00 | 87 | 72 | 63 | 30.25 | 150 | 2 | 0.00 |
| 7 | 07/03 | 18:00 | 88 | 72 | 60 | 30.28 | 150 | 6 | 0.00 |
| 8 | 07/03 | 17:00 | 89 | 72 | 58 | 30.29 | 290 | 2 | 0.00 |
| 9 | 07/03 | 16:00 | 89 | 72 | 59 | 30.30 | 270 | 7 | 0.00 |
| 10 | 07/03 | 15:00 | 90 | 73 | 58 | 30.29 | 310 | 4 | 0.00 |
| 11 | 07/03 | 14:00 | 90 | 74 | 60 | 30.30 | 130 | 1 | 0.00 |
| 12 | 07/03 | 13:00 | 89 | 74 | 63 | 30.31 | 140 | 2 | 0.00 |
| 13 | 07/03 | 12:00 | 87 | 75 | 70 | 30.38 | 130 | 1 | 0.00 |
| 14 | 07/03 | 11:00 | 83 | 75 | 78 | 30.39 | 270 | 1 | 0.00 |
| 15 | 07/03 | 10:00 | 78 | 73 | 87 | 30.37 | 290 | 0 | 0.00 |
| 16 | 07/03 | 09:00 | 75 | 72 | 93 | 30.35 | 310 | 1 | 0.00 |
| 17 | 07/03 | 08:00 | 73 | 71 | 94 | 30.34 | 140 | 0 | 0.00 |
| 18 | 07/03 | 07:00 | 71 | 69 | 94 | 30.32 | 140 | 0 | 0.00 |
| 19 | 07/03 | 06:00 | 70 | 68 | 94 | 30.32 | 140 | 0 | 0.00 |
| 20 | 07/03 | 05:00 | 70 | 67 | 93 | 30.30 | 140 | 0 | 0.00 |
| 21 | 07/03 | 04:00 | 70 | 67 | 93 | 30.27 | 140 | 0 | 0.00 |
| 22 | 07/03 | 03:00 | 70 | 67 | 92 | 30.27 | 140 | 0 | 0.00 |
| 23 | 07/03 | 02:00 | 70 | 67 | 92 | 30.28 | 140 | 0 | 0.00 |
| 24 | 07/03 | 01:00 | 71 | 68 | 91 | 30.29 | 140 | 0 | 0.00 |